Friday, April 29, 2016
23:37 UTC
  |  Log In   |  Register Free
Airport Search:

Page Field Airport
(KFMY)

FAA data valid effective Mar 31 2016 - May 26 2016 (unless otherwise noted).

 
 
 
 
 
 
 
 
 
 
 
 
 
 
Current Aviation Weather for KFMY

Weather Summary


The most recent METAR observation for FMY was updated at: 12:53 UTC
METAR for KFMY is not available. Closest METAR is for KRSW
KFMY  (most recent observation was updatred at 29:22 UTC)
292253Z 26008KT 10SM CLR 27/22 A2991 RMK AO2 LTG DSNT N SLP129 T02720222

KRSW  (6.5 nm NW)   (most recent observation was updated at 29:22 UTC)
292253Z 25007KT 10SM SCT065 SCT080 28/21 A2992 RMK AO2 LTG DSNT N AND NW SLP129 T02780211

KPGD  (21.1 nm SE)   (most recent observation was updated at 29:22 UTC)
292253Z AUTO 20005KT 10SM TS BKN050 BKN060 28/21 A2995 RMK AO2 LTG DSNT N AND NE TSB45 PRESRR SLP143 T02830211

TAF for KFMY is not available.
KFMY
292322Z 3000/3024 27006KT P6SM FEW040 FM300300 VRB03KT P6SM SKC FM301400 13010KT P6SM SCT050 FM302000 18012KT P6SM SCT050

KRSW  (6.5 nm NW)   (most recent observation was updatred at 29:23 UTC)
292322Z 3000/3024 26006KT P6SM FEW040 FM300300 VRB03KT P6SM SKC FM301400 13010KT P6SM SCT050 FM302000 18012KT P6SM SCT050


KPGD  (21.1 nm SE)   (most recent observation was updatred at 29:23 UTC)
292322Z 3000/3024 23006KT P6SM VCTS SCT040CB FM300300 VRB03KT P6SM SKC FM301500 14008KT P6SM SCT050 FM302000 18012KT P6SM SCT050
GlobalAir.com is loading additional information.
 Current Weather at FMY
82.0 F° (27.8 C°)

Southwest winds at 10.4 mph
Pressure:
29.90 in
Humidity:
74%
Wind:
Southwest at 10.4 mph
Dew Point:
73.0 F° (22.8 C°)
Visibility:
10.00 mi
FMY NOAA Radar




Find All Airport Services Find A Hotel Find A Rental Car Find A Golf Course Find A Restaurant $100 Hamburger



Airport Weather Forecast for KFMY

Translated METAR for KFMY (2253 UTC)
METAR:
KFMY 292253Z 26008KT 10SM CLR 27/22 A2991 RMK AO2 LTG DSNT N SLP129 T02720222
Conditions at:
KFMY (Page Field, FL) observed 2253 UTC 29 April 2016
Temperature:
27°C (80.6°F)
Dewpoint:
22°C (71.6°F) [RH = 74.1]
Pressure:
29.91 inches Hg (1012.9 mb)
pressure at sea level is 129 in Hg
Winds:
from the W (260 degrees) at 9.2 mph (8 knots: 4.1 m/s)
Visibility:
10 mile(s)
Ceiling:
at least 12,000 feet AGL
Clouds:
Clear below 12,000 feet AGL
Remarks:
site is automated and HAS a precipitation sensor

FBO's on the Field
FBO Company Facility Photos Services Transportation Aviation Fuel Prices: Prices include tax
Catering Weather Repair Courtesy Rental Type 100LL JetA JetA+ MOGAS 8087
 
Base Operations at Page Field

Currently rated 5 by 2 people
FS:Avfuel
Last Updated: Apr-29
Login to update fuel prices
SS:
Contact Base Operations at Page FieldMore FBO Information
 
Add another FBO Facility Photos Catering Weather Repair Courtesy Rental Type 100LL JetA JetA+ MOGAS 8087
Services Transportation Aviation Fuel Prices: Prices include tax


model-print
model-print
model-print
model-print